Terminal Aerodrome Forecast
Issued by NWS

Home | Current Version | Previous Version | Text Only | Print | Product List | Glossary On
Versions: 1 2 3 4 5 6 7 8 9 10 11 12 13 14 15 16 17 18 19 20 21 22 23 24 25 26 27 28 29 30 31 32 33 34 35 36 37 38
918
FTUS43 KLOT 251738
TAFGYY
TAF
KGYY 251738Z 2518/2618 15007KT P6SM FEW060 FEW200
     FM252100 07008KT P6SM FEW050 FEW200
     FM260100 14003KT P6SM FEW150
     FM261400 21007KT P6SM BKN120=

USA.gov is the U.S. government's official web portal to all federal, state and local government web resources and services.